sensor_id;sensor_type;location;lat;lon;timestamp;P1;durP1;ratioP1;P2;durP2;ratioP2
34828;SDS011;21042;47.620;12.188;2022-07-22T00:00:04;15.57;;;11.35;;
34828;SDS011;21042;47.620;12.188;2022-07-22T00:02:32;19.98;;;11.40;;
34828;SDS011;21042;47.620;12.188;2022-07-22T00:05:00;16.42;;;10.95;;
34828;SDS011;21042;47.620;12.188;2022-07-22T00:07:26;19.02;;;10.52;;
34828;SDS011;21042;47.620;12.188;2022-07-22T00:09:53;17.10;;;10.88;;
34828;SDS011;21042;47.620;12.188;2022-07-22T00:12:20;16.00;;;10.63;;
34828;SDS011;21042;47.620;12.188;2022-07-22T00:14:47;17.42;;;11.02;;
34828;SDS011;21042;47.620;12.188;2022-07-22T00:17:13;19.40;;;11.57;;
34828;SDS011;21042;47.620;12.188;2022-07-22T00:19:40;17.20;;;11.52;;
34828;SDS011;21042;47.620;12.188;2022-07-22T00:22:07;18.83;;;11.57;;
34828;SDS011;21042;47.620;12.188;2022-07-22T00:24:34;18.98;;;11.15;;
34828;SDS011;21042;47.620;12.188;2022-07-22T00:27:00;15.38;;;11.02;;
34828;SDS011;21042;47.620;12.188;2022-07-22T00:29:28;18.27;;;11.27;;
34828;SDS011;21042;47.620;12.188;2022-07-22T00:31:55;15.85;;;11.48;;
34828;SDS011;21042;47.620;12.188;2022-07-22T00:34:21;17.48;;;11.07;;
34828;SDS011;21042;47.620;12.188;2022-07-22T00:36:50;18.95;;;11.98;;
34828;SDS011;21042;47.620;12.188;2022-07-22T00:39:17;19.20;;;10.25;;
34828;SDS011;21042;47.620;12.188;2022-07-22T00:41:43;19.80;;;10.75;;
34828;SDS011;21042;47.620;12.188;2022-07-22T00:44:11;18.00;;;10.60;;
34828;SDS011;21042;47.620;12.188;2022-07-22T00:46:39;15.80;;;10.25;;
34828;SDS011;21042;47.620;12.188;2022-07-22T00:49:07;19.77;;;11.20;;
34828;SDS011;21042;47.620;12.188;2022-07-22T00:51:34;16.77;;;10.88;;
34828;SDS011;21042;47.620;12.188;2022-07-22T00:54:03;17.42;;;11.30;;
34828;SDS011;21042;47.620;12.188;2022-07-22T00:56:30;17.13;;;11.13;;
34828;SDS011;21042;47.620;12.188;2022-07-22T01:01:26;14.63;;;9.93;;
34828;SDS011;21042;47.620;12.188;2022-07-22T01:03:53;19.45;;;10.35;;
34828;SDS011;21042;47.620;12.188;2022-07-22T01:06:27;20.17;;;11.30;;
34828;SDS011;21042;47.620;12.188;2022-07-22T01:08:56;19.77;;;10.05;;
34828;SDS011;21042;47.620;12.188;2022-07-22T01:11:23;17.52;;;10.68;;
34828;SDS011;21042;47.620;12.188;2022-07-22T01:13:51;16.73;;;11.10;;
34828;SDS011;21042;47.620;12.188;2022-07-22T01:16:19;18.00;;;11.35;;
34828;SDS011;21042;47.620;12.188;2022-07-22T01:18:46;16.88;;;10.73;;
34828;SDS011;21042;47.620;12.188;2022-07-22T01:21:14;18.88;;;11.05;;
34828;SDS011;21042;47.620;12.188;2022-07-22T01:23:42;18.27;;;11.05;;
34828;SDS011;21042;47.620;12.188;2022-07-22T01:26:10;18.35;;;11.27;;
34828;SDS011;21042;47.620;12.188;2022-07-22T01:28:37;16.05;;;10.82;;
34828;SDS011;21042;47.620;12.188;2022-07-22T01:31:04;18.10;;;11.02;;
34828;SDS011;21042;47.620;12.188;2022-07-22T01:33:32;17.83;;;11.13;;
34828;SDS011;21042;47.620;12.188;2022-07-22T01:36:00;18.05;;;10.35;;
34828;SDS011;21042;47.620;12.188;2022-07-22T01:38:28;20.30;;;11.40;;
34828;SDS011;21042;47.620;12.188;2022-07-22T01:40:55;17.90;;;10.43;;
34828;SDS011;21042;47.620;12.188;2022-07-22T01:43:22;16.08;;;10.25;;
34828;SDS011;21042;47.620;12.188;2022-07-22T01:45:50;17.58;;;10.13;;
34828;SDS011;21042;47.620;12.188;2022-07-22T01:48:19;15.57;;;10.57;;
34828;SDS011;21042;47.620;12.188;2022-07-22T01:50:47;15.82;;;10.75;;
34828;SDS011;21042;47.620;12.188;2022-07-22T01:53:15;17.25;;;10.35;;
34828;SDS011;21042;47.620;12.188;2022-07-22T01:55:44;20.05;;;9.82;;
34828;SDS011;21042;47.620;12.188;2022-07-22T01:58:11;17.52;;;11.18;;
34828;SDS011;21042;47.620;12.188;2022-07-22T02:00:40;15.00;;;9.77;;
34828;SDS011;21042;47.620;12.188;2022-07-22T02:03:07;15.48;;;10.30;;
34828;SDS011;21042;47.620;12.188;2022-07-22T02:05:34;14.13;;;9.88;;
34828;SDS011;21042;47.620;12.188;2022-07-22T02:08:09;16.50;;;10.63;;
34828;SDS011;21042;47.620;12.188;2022-07-22T02:10:55;14.55;;;10.98;;
34828;SDS011;21042;47.620;12.188;2022-07-22T02:13:22;16.98;;;10.50;;
34828;SDS011;21042;47.620;12.188;2022-07-22T02:15:49;17.55;;;9.77;;
34828;SDS011;21042;47.620;12.188;2022-07-22T02:18:17;19.90;;;10.63;;
34828;SDS011;21042;47.620;12.188;2022-07-22T02:20:45;18.70;;;10.68;;
34828;SDS011;21042;47.620;12.188;2022-07-22T02:23:13;15.70;;;10.27;;
34828;SDS011;21042;47.620;12.188;2022-07-22T02:25:40;15.65;;;10.63;;
34828;SDS011;21042;47.620;12.188;2022-07-22T02:28:09;19.65;;;11.43;;
34828;SDS011;21042;47.620;12.188;2022-07-22T02:30:36;16.27;;;10.25;;
34828;SDS011;21042;47.620;12.188;2022-07-22T02:33:03;16.08;;;10.98;;
34828;SDS011;21042;47.620;12.188;2022-07-22T02:35:31;16.55;;;11.25;;
34828;SDS011;21042;47.620;12.188;2022-07-22T02:37:58;20.10;;;11.30;;
34828;SDS011;21042;47.620;12.188;2022-07-22T02:40:27;18.00;;;10.77;;
34828;SDS011;21042;47.620;12.188;2022-07-22T02:42:54;16.95;;;10.65;;
34828;SDS011;21042;47.620;12.188;2022-07-22T02:45:22;19.85;;;10.40;;
34828;SDS011;21042;47.620;12.188;2022-07-22T02:47:51;19.48;;;10.20;;
34828;SDS011;21042;47.620;12.188;2022-07-22T02:50:21;16.98;;;10.13;;
34828;SDS011;21042;47.620;12.188;2022-07-22T02:52:50;20.02;;;11.48;;
34828;SDS011;21042;47.620;12.188;2022-07-22T02:55:19;17.30;;;11.02;;
34828;SDS011;21042;47.620;12.188;2022-07-22T02:57:47;18.15;;;10.90;;
34828;SDS011;21042;47.620;12.188;2022-07-22T03:02:44;16.67;;;11.07;;
34828;SDS011;21042;47.620;12.188;2022-07-22T03:05:11;18.88;;;11.50;;
34828;SDS011;21042;47.620;12.188;2022-07-22T03:07:45;16.48;;;10.85;;
34828;SDS011;21042;47.620;12.188;2022-07-22T03:10:14;19.65;;;10.68;;
34828;SDS011;21042;47.620;12.188;2022-07-22T03:12:41;15.52;;;10.27;;
34828;SDS011;21042;47.620;12.188;2022-07-22T03:15:08;20.40;;;10.90;;
34828;SDS011;21042;47.620;12.188;2022-07-22T03:20:04;18.10;;;10.50;;
34828;SDS011;21042;47.620;12.188;2022-07-22T03:22:33;23.08;;;11.32;;
34828;SDS011;21042;47.620;12.188;2022-07-22T03:25:00;18.13;;;11.60;;
34828;SDS011;21042;47.620;12.188;2022-07-22T03:27:27;17.65;;;11.02;;
34828;SDS011;21042;47.620;12.188;2022-07-22T03:29:55;18.75;;;11.25;;
34828;SDS011;21042;47.620;12.188;2022-07-22T03:32:21;21.77;;;11.32;;
34828;SDS011;21042;47.620;12.188;2022-07-22T03:34:48;20.63;;;11.23;;
34828;SDS011;21042;47.620;12.188;2022-07-22T03:39:43;16.45;;;10.88;;
34828;SDS011;21042;47.620;12.188;2022-07-22T03:42:10;17.65;;;10.43;;
34828;SDS011;21042;47.620;12.188;2022-07-22T03:44:46;18.02;;;10.68;;
34828;SDS011;21042;47.620;12.188;2022-07-22T03:47:20;16.67;;;10.30;;
34828;SDS011;21042;47.620;12.188;2022-07-22T03:49:49;17.40;;;10.15;;
34828;SDS011;21042;47.620;12.188;2022-07-22T03:52:23;16.90;;;11.20;;
34828;SDS011;21042;47.620;12.188;2022-07-22T03:54:50;16.20;;;10.65;;
34828;SDS011;21042;47.620;12.188;2022-07-22T03:57:17;20.30;;;11.30;;
34828;SDS011;21042;47.620;12.188;2022-07-22T03:59:45;16.55;;;10.38;;
34828;SDS011;21042;47.620;12.188;2022-07-22T04:02:13;17.40;;;10.02;;
34828;SDS011;21042;47.620;12.188;2022-07-22T04:04:40;17.75;;;10.75;;
34828;SDS011;21042;47.620;12.188;2022-07-22T04:07:07;18.38;;;10.82;;
34828;SDS011;21042;47.620;12.188;2022-07-22T04:09:35;21.95;;;11.55;;
34828;SDS011;21042;47.620;12.188;2022-07-22T04:12:02;16.65;;;10.07;;
34828;SDS011;21042;47.620;12.188;2022-07-22T04:14:34;18.25;;;10.73;;
34828;SDS011;21042;47.620;12.188;2022-07-22T04:17:01;19.75;;;10.73;;
34828;SDS011;21042;47.620;12.188;2022-07-22T04:19:28;18.65;;;10.52;;
34828;SDS011;21042;47.620;12.188;2022-07-22T04:21:58;17.67;;;11.10;;
34828;SDS011;21042;47.620;12.188;2022-07-22T04:24:27;16.55;;;11.48;;
34828;SDS011;21042;47.620;12.188;2022-07-22T04:26:55;16.48;;;10.52;;
34828;SDS011;21042;47.620;12.188;2022-07-22T04:29:22;21.60;;;11.45;;
34828;SDS011;21042;47.620;12.188;2022-07-22T04:31:49;16.55;;;11.30;;
34828;SDS011;21042;47.620;12.188;2022-07-22T04:34:18;23.00;;;11.77;;
34828;SDS011;21042;47.620;12.188;2022-07-22T04:36:47;16.05;;;11.20;;
34828;SDS011;21042;47.620;12.188;2022-07-22T04:39:13;20.02;;;12.07;;
34828;SDS011;21042;47.620;12.188;2022-07-22T04:41:47;19.85;;;11.95;;
34828;SDS011;21042;47.620;12.188;2022-07-22T04:44:16;19.25;;;12.00;;
34828;SDS011;21042;47.620;12.188;2022-07-22T04:46:43;18.20;;;12.02;;
34828;SDS011;21042;47.620;12.188;2022-07-22T04:49:10;19.48;;;11.68;;
34828;SDS011;21042;47.620;12.188;2022-07-22T04:51:37;20.02;;;12.57;;
34828;SDS011;21042;47.620;12.188;2022-07-22T04:54:07;21.38;;;12.80;;
34828;SDS011;21042;47.620;12.188;2022-07-22T04:56:38;20.90;;;12.02;;
34828;SDS011;21042;47.620;12.188;2022-07-22T04:59:07;22.38;;;13.70;;
34828;SDS011;21042;47.620;12.188;2022-07-22T05:01:35;25.95;;;13.63;;
34828;SDS011;21042;47.620;12.188;2022-07-22T05:04:04;27.25;;;13.85;;
34828;SDS011;21042;47.620;12.188;2022-07-22T05:06:31;23.20;;;13.75;;
34828;SDS011;21042;47.620;12.188;2022-07-22T05:08:59;21.33;;;12.68;;
34828;SDS011;21042;47.620;12.188;2022-07-22T05:11:29;24.05;;;13.57;;
34828;SDS011;21042;47.620;12.188;2022-07-22T05:13:56;19.63;;;13.25;;
34828;SDS011;21042;47.620;12.188;2022-07-22T05:16:23;23.52;;;13.88;;
34828;SDS011;21042;47.620;12.188;2022-07-22T05:18:50;24.25;;;13.40;;
34828;SDS011;21042;47.620;12.188;2022-07-22T05:21:19;22.88;;;14.27;;
34828;SDS011;21042;47.620;12.188;2022-07-22T05:23:46;21.88;;;13.93;;
34828;SDS011;21042;47.620;12.188;2022-07-22T05:26:14;19.55;;;13.38;;
34828;SDS011;21042;47.620;12.188;2022-07-22T05:28:41;29.45;;;14.93;;
34828;SDS011;21042;47.620;12.188;2022-07-22T05:31:08;22.20;;;13.95;;
34828;SDS011;21042;47.620;12.188;2022-07-22T05:33:36;20.13;;;13.23;;
34828;SDS011;21042;47.620;12.188;2022-07-22T05:36:22;22.50;;;14.70;;
34828;SDS011;21042;47.620;12.188;2022-07-22T05:38:49;23.25;;;14.50;;
34828;SDS011;21042;47.620;12.188;2022-07-22T05:41:17;24.13;;;13.77;;
34828;SDS011;21042;47.620;12.188;2022-07-22T05:43:44;18.77;;;12.65;;
34828;SDS011;21042;47.620;12.188;2022-07-22T05:46:13;20.70;;;12.63;;
34828;SDS011;21042;47.620;12.188;2022-07-22T05:48:41;24.02;;;13.35;;
34828;SDS011;21042;47.620;12.188;2022-07-22T05:51:11;18.80;;;12.63;;
34828;SDS011;21042;47.620;12.188;2022-07-22T05:53:40;20.48;;;12.68;;
34828;SDS011;21042;47.620;12.188;2022-07-22T05:56:08;21.33;;;13.40;;
34828;SDS011;21042;47.620;12.188;2022-07-22T05:58:40;18.23;;;11.90;;
34828;SDS011;21042;47.620;12.188;2022-07-22T06:01:10;19.67;;;12.45;;
34828;SDS011;21042;47.620;12.188;2022-07-22T06:03:39;22.05;;;13.45;;
34828;SDS011;21042;47.620;12.188;2022-07-22T06:06:06;22.45;;;13.43;;
34828;SDS011;21042;47.620;12.188;2022-07-22T06:08:35;21.75;;;12.82;;
34828;SDS011;21042;47.620;12.188;2022-07-22T06:11:02;17.33;;;11.73;;
34828;SDS011;21042;47.620;12.188;2022-07-22T06:13:29;19.20;;;12.80;;
34828;SDS011;21042;47.620;12.188;2022-07-22T06:15:56;19.75;;;13.32;;
34828;SDS011;21042;47.620;12.188;2022-07-22T06:18:25;18.80;;;12.27;;
34828;SDS011;21042;47.620;12.188;2022-07-22T06:20:52;23.10;;;13.88;;
34828;SDS011;21042;47.620;12.188;2022-07-22T06:23:19;22.27;;;12.63;;
34828;SDS011;21042;47.620;12.188;2022-07-22T06:25:46;25.40;;;13.20;;
34828;SDS011;21042;47.620;12.188;2022-07-22T06:28:33;21.90;;;13.77;;
34828;SDS011;21042;47.620;12.188;2022-07-22T06:31:01;23.52;;;13.18;;
34828;SDS011;21042;47.620;12.188;2022-07-22T06:33:28;26.73;;;13.02;;
34828;SDS011;21042;47.620;12.188;2022-07-22T06:35:56;18.67;;;12.48;;
34828;SDS011;21042;47.620;12.188;2022-07-22T06:38:25;24.48;;;13.95;;
34828;SDS011;21042;47.620;12.188;2022-07-22T06:41:20;22.27;;;13.63;;
34828;SDS011;21042;47.620;12.188;2022-07-22T06:44:07;23.55;;;13.25;;
34828;SDS011;21042;47.620;12.188;2022-07-22T06:46:45;19.83;;;13.13;;
34828;SDS011;21042;47.620;12.188;2022-07-22T06:49:15;20.92;;;12.95;;
34828;SDS011;21042;47.620;12.188;2022-07-22T06:51:43;23.67;;;13.35;;
34828;SDS011;21042;47.620;12.188;2022-07-22T06:54:11;22.70;;;13.90;;
34828;SDS011;21042;47.620;12.188;2022-07-22T06:59:08;20.90;;;12.35;;
34828;SDS011;21042;47.620;12.188;2022-07-22T07:01:35;20.55;;;13.18;;
34828;SDS011;21042;47.620;12.188;2022-07-22T07:04:02;21.83;;;12.85;;
34828;SDS011;21042;47.620;12.188;2022-07-22T07:09:15;19.23;;;13.40;;
34828;SDS011;21042;47.620;12.188;2022-07-22T07:11:51;22.98;;;13.43;;
34828;SDS011;21042;47.620;12.188;2022-07-22T07:14:38;19.45;;;12.52;;
34828;SDS011;21042;47.620;12.188;2022-07-22T07:17:13;19.42;;;13.30;;
34828;SDS011;21042;47.620;12.188;2022-07-22T07:19:41;23.88;;;13.38;;
34828;SDS011;21042;47.620;12.188;2022-07-22T07:22:08;25.42;;;13.85;;
34828;SDS011;21042;47.620;12.188;2022-07-22T07:24:36;19.95;;;12.68;;
34828;SDS011;21042;47.620;12.188;2022-07-22T07:27:04;20.55;;;13.90;;
34828;SDS011;21042;47.620;12.188;2022-07-22T07:29:31;16.60;;;11.82;;
34828;SDS011;21042;47.620;12.188;2022-07-22T07:31:58;16.50;;;12.30;;
34828;SDS011;21042;47.620;12.188;2022-07-22T07:34:25;19.15;;;12.50;;
34828;SDS011;21042;47.620;12.188;2022-07-22T07:36:52;20.17;;;12.23;;
34828;SDS011;21042;47.620;12.188;2022-07-22T07:39:19;17.88;;;12.75;;
34828;SDS011;21042;47.620;12.188;2022-07-22T07:41:45;20.73;;;13.95;;
34828;SDS011;21042;47.620;12.188;2022-07-22T07:44:20;18.67;;;12.48;;
34828;SDS011;21042;47.620;12.188;2022-07-22T07:46:47;17.48;;;12.52;;
34828;SDS011;21042;47.620;12.188;2022-07-22T07:49:14;17.58;;;12.98;;
34828;SDS011;21042;47.620;12.188;2022-07-22T07:51:41;18.98;;;12.95;;
34828;SDS011;21042;47.620;12.188;2022-07-22T07:54:09;19.80;;;13.38;;
34828;SDS011;21042;47.620;12.188;2022-07-22T07:56:37;25.98;;;13.27;;
34828;SDS011;21042;47.620;12.188;2022-07-22T07:59:04;23.15;;;13.75;;
34828;SDS011;21042;47.620;12.188;2022-07-22T08:01:51;16.67;;;12.60;;
34828;SDS011;21042;47.620;12.188;2022-07-22T08:04:27;19.48;;;13.25;;
34828;SDS011;21042;47.620;12.188;2022-07-22T08:07:13;22.95;;;13.43;;
34828;SDS011;21042;47.620;12.188;2022-07-22T08:09:42;19.17;;;13.35;;
34828;SDS011;21042;47.620;12.188;2022-07-22T08:12:20;23.85;;;14.18;;
34828;SDS011;21042;47.620;12.188;2022-07-22T08:14:56;18.10;;;12.70;;
34828;SDS011;21042;47.620;12.188;2022-07-22T08:17:43;19.58;;;13.48;;
34828;SDS011;21042;47.620;12.188;2022-07-22T08:20:10;17.40;;;12.23;;
34828;SDS011;21042;47.620;12.188;2022-07-22T08:22:43;21.25;;;13.18;;
34828;SDS011;21042;47.620;12.188;2022-07-22T08:25:10;19.55;;;12.70;;
34828;SDS011;21042;47.620;12.188;2022-07-22T08:27:37;16.13;;;11.80;;
34828;SDS011;21042;47.620;12.188;2022-07-22T08:32:32;18.30;;;11.95;;
34828;SDS011;21042;47.620;12.188;2022-07-22T08:35:01;13.85;;;10.70;;
34828;SDS011;21042;47.620;12.188;2022-07-22T08:37:28;16.92;;;10.82;;
34828;SDS011;21042;47.620;12.188;2022-07-22T08:39:55;16.30;;;11.55;;
34828;SDS011;21042;47.620;12.188;2022-07-22T08:42:22;17.92;;;10.48;;
34828;SDS011;21042;47.620;12.188;2022-07-22T08:44:50;14.65;;;10.35;;
34828;SDS011;21042;47.620;12.188;2022-07-22T08:47:22;19.25;;;10.15;;
34828;SDS011;21042;47.620;12.188;2022-07-22T08:50:27;16.48;;;10.75;;
34828;SDS011;21042;47.620;12.188;2022-07-22T08:53:00;14.68;;;10.27;;
34828;SDS011;21042;47.620;12.188;2022-07-22T08:57:54;16.15;;;10.60;;
34828;SDS011;21042;47.620;12.188;2022-07-22T09:00:22;12.38;;;9.25;;
34828;SDS011;21042;47.620;12.188;2022-07-22T09:02:50;12.85;;;10.07;;
34828;SDS011;21042;47.620;12.188;2022-07-22T09:05:17;16.67;;;10.68;;
34828;SDS011;21042;47.620;12.188;2022-07-22T09:08:06;12.75;;;9.52;;
34828;SDS011;21042;47.620;12.188;2022-07-22T09:11:17;11.82;;;9.70;;
34828;SDS011;21042;47.620;12.188;2022-07-22T09:14:05;13.45;;;10.05;;
34828;SDS011;21042;47.620;12.188;2022-07-22T09:16:51;13.80;;;10.07;;
34828;SDS011;21042;47.620;12.188;2022-07-22T09:19:35;14.27;;;9.98;;
34828;SDS011;21042;47.620;12.188;2022-07-22T09:22:34;11.05;;;8.60;;
34828;SDS011;21042;47.620;12.188;2022-07-22T09:25:26;13.70;;;9.63;;
34828;SDS011;21042;47.620;12.188;2022-07-22T09:28:20;12.93;;;9.57;;
34828;SDS011;21042;47.620;12.188;2022-07-22T09:31:09;11.73;;;8.63;;
34828;SDS011;21042;47.620;12.188;2022-07-22T09:34:28;14.40;;;9.32;;
34828;SDS011;21042;47.620;12.188;2022-07-22T09:37:03;13.05;;;8.45;;
34828;SDS011;21042;47.620;12.188;2022-07-22T09:39:30;10.98;;;9.23;;
34828;SDS011;21042;47.620;12.188;2022-07-22T09:42:00;11.73;;;8.75;;
34828;SDS011;21042;47.620;12.188;2022-07-22T09:44:29;12.73;;;8.40;;
34828;SDS011;21042;47.620;12.188;2022-07-22T09:47:00;10.45;;;8.48;;
34828;SDS011;21042;47.620;12.188;2022-07-22T09:50:01;12.90;;;8.18;;
34828;SDS011;21042;47.620;12.188;2022-07-22T09:52:44;13.57;;;9.32;;
34828;SDS011;21042;47.620;12.188;2022-07-22T09:55:20;10.85;;;8.73;;
34828;SDS011;21042;47.620;12.188;2022-07-22T09:57:49;14.07;;;9.50;;
34828;SDS011;21042;47.620;12.188;2022-07-22T10:00:21;14.73;;;9.18;;
34828;SDS011;21042;47.620;12.188;2022-07-22T10:02:59;11.85;;;8.55;;
34828;SDS011;21042;47.620;12.188;2022-07-22T10:05:40;11.57;;;9.40;;
34828;SDS011;21042;47.620;12.188;2022-07-22T10:08:09;14.82;;;9.35;;
34828;SDS011;21042;47.620;12.188;2022-07-22T10:10:36;16.23;;;9.57;;
34828;SDS011;21042;47.620;12.188;2022-07-22T10:13:05;13.85;;;9.20;;
34828;SDS011;21042;47.620;12.188;2022-07-22T10:15:33;14.10;;;9.25;;
34828;SDS011;21042;47.620;12.188;2022-07-22T10:18:07;13.90;;;8.93;;
34828;SDS011;21042;47.620;12.188;2022-07-22T10:20:40;14.68;;;9.45;;
34828;SDS011;21042;47.620;12.188;2022-07-22T10:25:50;13.70;;;9.93;;
34828;SDS011;21042;47.620;12.188;2022-07-22T10:28:25;13.55;;;10.40;;
34828;SDS011;21042;47.620;12.188;2022-07-22T10:30:53;15.85;;;10.95;;
34828;SDS011;21042;47.620;12.188;2022-07-22T10:33:40;15.75;;;10.70;;
34828;SDS011;21042;47.620;12.188;2022-07-22T10:38:36;14.40;;;10.32;;
34828;SDS011;21042;47.620;12.188;2022-07-22T10:46:08;14.63;;;11.00;;
34828;SDS011;21042;47.620;12.188;2022-07-22T10:51:09;11.68;;;9.60;;
34828;SDS011;21042;47.620;12.188;2022-07-22T10:53:39;11.93;;;9.02;;
34828;SDS011;21042;47.620;12.188;2022-07-22T10:56:16;17.80;;;9.75;;
34828;SDS011;21042;47.620;12.188;2022-07-22T10:59:08;15.05;;;10.35;;
34828;SDS011;21042;47.620;12.188;2022-07-22T11:01:37;18.30;;;12.00;;
34828;SDS011;21042;47.620;12.188;2022-07-22T11:04:10;14.02;;;10.43;;
34828;SDS011;21042;47.620;12.188;2022-07-22T11:06:43;13.60;;;10.32;;
34828;SDS011;21042;47.620;12.188;2022-07-22T11:09:12;15.30;;;10.32;;
34828;SDS011;21042;47.620;12.188;2022-07-22T11:11:50;13.90;;;10.15;;
34828;SDS011;21042;47.620;12.188;2022-07-22T11:14:22;14.80;;;11.13;;
34828;SDS011;21042;47.620;12.188;2022-07-22T11:16:57;13.50;;;10.25;;
34828;SDS011;21042;47.620;12.188;2022-07-22T11:19:31;13.02;;;10.40;;
34828;SDS011;21042;47.620;12.188;2022-07-22T11:21:59;15.02;;;10.10;;
34828;SDS011;21042;47.620;12.188;2022-07-22T11:24:31;12.88;;;10.57;;
34828;SDS011;21042;47.620;12.188;2022-07-22T11:26:59;18.45;;;11.68;;
34828;SDS011;21042;47.620;12.188;2022-07-22T11:29:32;13.75;;;10.32;;
34828;SDS011;21042;47.620;12.188;2022-07-22T11:32:07;14.18;;;9.85;;
34828;SDS011;21042;47.620;12.188;2022-07-22T11:34:36;14.05;;;10.13;;
34828;SDS011;21042;47.620;12.188;2022-07-22T11:37:08;12.02;;;9.55;;
34828;SDS011;21042;47.620;12.188;2022-07-22T11:42:02;11.82;;;9.43;;
34828;SDS011;21042;47.620;12.188;2022-07-22T11:44:30;14.40;;;10.07;;
34828;SDS011;21042;47.620;12.188;2022-07-22T11:46:59;14.68;;;9.82;;
34828;SDS011;21042;47.620;12.188;2022-07-22T11:49:27;17.70;;;9.90;;
34828;SDS011;21042;47.620;12.188;2022-07-22T11:51:56;11.77;;;9.77;;
34828;SDS011;21042;47.620;12.188;2022-07-22T11:54:23;14.80;;;10.35;;
34828;SDS011;21042;47.620;12.188;2022-07-22T11:59:22;12.23;;;9.70;;
34828;SDS011;21042;47.620;12.188;2022-07-22T12:01:49;13.77;;;9.85;;
34828;SDS011;21042;47.620;12.188;2022-07-22T12:04:17;11.32;;;9.50;;
34828;SDS011;21042;47.620;12.188;2022-07-22T12:06:46;11.50;;;9.65;;
34828;SDS011;21042;47.620;12.188;2022-07-22T12:09:15;13.32;;;9.60;;
34828;SDS011;21042;47.620;12.188;2022-07-22T12:11:46;14.48;;;9.75;;
34828;SDS011;21042;47.620;12.188;2022-07-22T12:14:14;14.15;;;9.70;;
34828;SDS011;21042;47.620;12.188;2022-07-22T12:16:44;13.32;;;9.90;;
34828;SDS011;21042;47.620;12.188;2022-07-22T12:19:20;12.23;;;9.82;;
34828;SDS011;21042;47.620;12.188;2022-07-22T12:21:57;12.82;;;9.05;;
34828;SDS011;21042;47.620;12.188;2022-07-22T12:27:07;15.07;;;9.65;;
34828;SDS011;21042;47.620;12.188;2022-07-22T12:32:03;12.30;;;10.18;;
34828;SDS011;21042;47.620;12.188;2022-07-22T12:34:37;12.60;;;9.10;;
34828;SDS011;21042;47.620;12.188;2022-07-22T12:43:01;12.63;;;9.75;;
34828;SDS011;21042;47.620;12.188;2022-07-22T12:45:33;13.60;;;10.15;;
34828;SDS011;21042;47.620;12.188;2022-07-22T12:53:05;13.02;;;9.93;;
34828;SDS011;21042;47.620;12.188;2022-07-22T12:55:42;13.00;;;9.55;;
34828;SDS011;21042;47.620;12.188;2022-07-22T12:58:12;12.18;;;10.25;;
34828;SDS011;21042;47.620;12.188;2022-07-22T13:00:45;16.25;;;9.68;;
34828;SDS011;21042;47.620;12.188;2022-07-22T13:03:13;18.08;;;10.13;;
34828;SDS011;21042;47.620;12.188;2022-07-22T13:05:41;12.95;;;9.60;;
34828;SDS011;21042;47.620;12.188;2022-07-22T13:08:08;12.15;;;10.25;;
34828;SDS011;21042;47.620;12.188;2022-07-22T13:10:35;12.23;;;9.73;;
34828;SDS011;21042;47.620;12.188;2022-07-22T13:13:04;14.82;;;9.70;;
34828;SDS011;21042;47.620;12.188;2022-07-22T13:15:31;12.95;;;9.43;;
34828;SDS011;21042;47.620;12.188;2022-07-22T13:17:58;12.23;;;9.32;;
34828;SDS011;21042;47.620;12.188;2022-07-22T13:22:52;12.95;;;10.20;;
34828;SDS011;21042;47.620;12.188;2022-07-22T13:27:45;14.60;;;10.15;;
34828;SDS011;21042;47.620;12.188;2022-07-22T13:32:39;15.25;;;10.63;;
34828;SDS011;21042;47.620;12.188;2022-07-22T13:35:14;12.55;;;9.80;;
34828;SDS011;21042;47.620;12.188;2022-07-22T13:37:42;14.10;;;10.07;;
34828;SDS011;21042;47.620;12.188;2022-07-22T13:40:09;12.23;;;9.95;;
34828;SDS011;21042;47.620;12.188;2022-07-22T13:42:37;13.60;;;10.13;;
34828;SDS011;21042;47.620;12.188;2022-07-22T13:45:04;13.65;;;10.30;;
34828;SDS011;21042;47.620;12.188;2022-07-22T13:47:35;15.60;;;10.73;;
34828;SDS011;21042;47.620;12.188;2022-07-22T13:50:02;15.27;;;11.38;;
34828;SDS011;21042;47.620;12.188;2022-07-22T13:52:31;12.73;;;10.20;;
34828;SDS011;21042;47.620;12.188;2022-07-22T13:54:57;12.40;;;10.57;;
34828;SDS011;21042;47.620;12.188;2022-07-22T13:57:24;12.23;;;10.93;;
34828;SDS011;21042;47.620;12.188;2022-07-22T14:02:18;14.60;;;11.03;;
34828;SDS011;21042;47.620;12.188;2022-07-22T14:04:45;15.05;;;10.75;;
34828;SDS011;21042;47.620;12.188;2022-07-22T14:09:39;13.40;;;10.32;;
34828;SDS011;21042;47.620;12.188;2022-07-22T14:14:32;13.73;;;10.97;;
34828;SDS011;21042;47.620;12.188;2022-07-22T14:19:28;13.10;;;9.73;;
34828;SDS011;21042;47.620;12.188;2022-07-22T14:24:22;14.85;;;10.57;;
34828;SDS011;21042;47.620;12.188;2022-07-22T14:26:49;14.63;;;11.13;;
34828;SDS011;21042;47.620;12.188;2022-07-22T14:29:16;16.10;;;11.25;;
34828;SDS011;21042;47.620;12.188;2022-07-22T14:31:43;14.30;;;10.27;;
34828;SDS011;21042;47.620;12.188;2022-07-22T14:34:10;14.43;;;10.50;;
34828;SDS011;21042;47.620;12.188;2022-07-22T14:39:03;13.43;;;10.68;;
34828;SDS011;21042;47.620;12.188;2022-07-22T14:43:57;14.05;;;10.23;;
34828;SDS011;21042;47.620;12.188;2022-07-22T14:46:24;19.10;;;11.55;;
34828;SDS011;21042;47.620;12.188;2022-07-22T14:48:51;13.55;;;11.15;;
34828;SDS011;21042;47.620;12.188;2022-07-22T14:51:21;13.55;;;10.30;;
34828;SDS011;21042;47.620;12.188;2022-07-22T14:53:49;14.30;;;10.45;;
34828;SDS011;21042;47.620;12.188;2022-07-22T14:56:16;15.10;;;10.93;;
34828;SDS011;21042;47.620;12.188;2022-07-22T14:58:44;14.35;;;11.38;;
34828;SDS011;21042;47.620;12.188;2022-07-22T15:01:11;12.02;;;10.73;;
34828;SDS011;21042;47.620;12.188;2022-07-22T15:03:39;13.02;;;10.52;;
34828;SDS011;21042;47.620;12.188;2022-07-22T15:06:07;14.88;;;10.55;;
34828;SDS011;21042;47.620;12.188;2022-07-22T15:08:34;13.55;;;10.98;;
34828;SDS011;21042;47.620;12.188;2022-07-22T15:11:01;14.82;;;10.60;;
34828;SDS011;21042;47.620;12.188;2022-07-22T15:13:28;13.35;;;11.00;;
34828;SDS011;21042;47.620;12.188;2022-07-22T15:15:55;13.75;;;11.30;;
34828;SDS011;21042;47.620;12.188;2022-07-22T15:18:23;15.52;;;10.88;;
34828;SDS011;21042;47.620;12.188;2022-07-22T15:20:50;17.00;;;10.55;;
34828;SDS011;21042;47.620;12.188;2022-07-22T15:23:21;13.85;;;10.75;;
34828;SDS011;21042;47.620;12.188;2022-07-22T15:25:57;17.55;;;12.93;;
34828;SDS011;21042;47.620;12.188;2022-07-22T15:28:25;15.10;;;10.90;;
34828;SDS011;21042;47.620;12.188;2022-07-22T15:31:01;15.63;;;9.98;;
34828;SDS011;21042;47.620;12.188;2022-07-22T15:33:29;15.02;;;9.88;;
34828;SDS011;21042;47.620;12.188;2022-07-22T15:36:06;14.35;;;10.07;;
34828;SDS011;21042;47.620;12.188;2022-07-22T15:38:36;12.77;;;9.98;;
34828;SDS011;21042;47.620;12.188;2022-07-22T15:41:04;15.00;;;10.43;;
34828;SDS011;21042;47.620;12.188;2022-07-22T15:43:31;16.88;;;10.55;;
34828;SDS011;21042;47.620;12.188;2022-07-22T15:48:25;12.25;;;10.23;;